createdAt,value
2019-05-20T00:03:23.377Z,99717.09
2019-05-20T00:08:46.778Z,99712.95
2019-05-20T00:14:10.293Z,99714.65
2019-05-20T00:19:33.735Z,99713.03
2019-05-20T00:24:56.856Z,99720.23
2019-05-20T00:30:20.914Z,99730.77
2019-05-20T00:35:44.725Z,99719.70
2019-05-20T00:41:07.512Z,99728.86
2019-05-20T00:46:30.733Z,99711.69
2019-05-20T00:51:54.513Z,99717.22
2019-05-20T00:57:18.017Z,99716.39
2019-05-20T01:02:55.827Z,99718.91
2019-05-20T01:08:05.971Z,99714.76
2019-05-20T01:13:28.825Z,99714.76
2019-05-20T01:18:52.330Z,99713.09
2019-05-20T01:24:15.728Z,99720.30
2019-05-20T01:29:39.221Z,99712.00
2019-05-20T01:35:02.714Z,99715.05
2019-05-20T01:40:26.247Z,99707.83
2019-05-20T01:45:49.615Z,99696.45
2019-05-20T01:51:12.558Z,99692.60
2019-05-20T01:56:35.780Z,99685.38
2019-05-20T02:01:59.310Z,99680.99
2019-05-20T02:07:23.014Z,99680.39
2019-05-20T02:12:46.324Z,99686.23
2019-05-20T02:18:09.638Z,99698.13
2019-05-20T02:23:33.402Z,99688.71
2019-05-20T02:28:56.750Z,99683.47
2019-05-20T02:34:20.226Z,99674.03
2019-05-20T02:39:43.502Z,99669.88
2019-05-20T02:45:09.028Z,99656.86
2019-05-20T02:50:31.503Z,99652.16
2019-05-20T02:56:23.382Z,99657.99
2019-05-20T03:02:06.803Z,99659.36
2019-05-20T03:07:24.349Z,99657.16
2019-05-20T03:12:47.972Z,99660.45
2019-05-20T03:18:11.391Z,99664.30
2019-05-20T03:23:34.647Z,99660.17
2019-05-20T03:28:57.965Z,99660.98
2019-05-20T03:34:43.424Z,99667.91
2019-05-20T03:39:48.235Z,99664.59
2019-05-20T03:45:11.954Z,99662.64
2019-05-20T03:50:35.757Z,99655.45
2019-05-20T03:55:58.949Z,99650.20
2019-05-20T04:01:23.924Z,99656.02
2019-05-20T04:06:47.427Z,99654.36
2019-05-20T04:12:10.977Z,99645.50
2019-05-20T04:17:34.254Z,99645.78
2019-05-20T04:22:57.059Z,99643.59
2019-05-20T04:28:19.885Z,99639.71
2019-05-20T04:33:43.290Z,99654.08
2019-05-20T04:39:07.244Z,99650.51
2019-05-20T04:44:31.087Z,99648.28
2019-05-20T04:49:54.904Z,99658.79
2019-05-20T04:55:18.064Z,99665.45
2019-05-20T05:00:55.461Z,99665.14
2019-05-20T05:06:18.610Z,99661.01
2019-05-20T05:11:41.817Z,99674.84
2019-05-20T05:17:05.711Z,99676.24
2019-05-20T05:22:28.648Z,99677.05
2019-05-20T05:27:51.888Z,99676.81
2019-05-20T05:33:15.072Z,99678.73
2019-05-20T05:38:38.599Z,99677.38
2019-05-20T05:44:02.245Z,99680.42
2019-05-20T05:49:25.354Z,99672.10
2019-05-20T05:54:48.947Z,99667.66
2019-05-20T06:00:12.466Z,99667.66
2019-05-20T06:05:35.586Z,99671.56
2019-05-20T06:10:58.393Z,99676.28
2019-05-20T06:16:36.027Z,99679.58
2019-05-20T06:21:46.309Z,99669.62
2019-05-20T06:27:48.701Z,99655.73
2019-05-20T06:33:11.645Z,99659.03
2019-05-20T06:38:36.800Z,99645.18
2019-05-20T06:44:00.282Z,99649.59
2019-05-20T06:49:23.990Z,99662.80
2019-05-20T06:54:46.735Z,99655.59
2019-05-20T07:00:11.980Z,99652.73
2019-05-20T07:05:35.257Z,99655.71
2019-05-20T07:10:58.480Z,99652.33
2019-05-20T07:16:21.686Z,99643.02
2019-05-20T07:21:45.317Z,99648.91
2019-05-20T07:27:08.673Z,99642.05
2019-05-20T07:32:31.881Z,99645.20
2019-05-20T07:37:55.164Z,99639.36
2019-05-20T07:43:18.819Z,99636.38
2019-05-20T07:48:42.588Z,99636.16
2019-05-20T07:54:06.062Z,99626.21
2019-05-20T07:59:31.423Z,99622.09
2019-05-20T08:04:54.830Z,99627.31
2019-05-20T08:10:18.568Z,99630.28
2019-05-20T08:15:41.811Z,99631.78
2019-05-20T08:21:05.527Z,99620.87
2019-05-20T08:26:29.097Z,99633.84
2019-05-20T08:31:52.384Z,99622.70
2019-05-20T08:37:16.037Z,99624.59
2019-05-20T08:42:39.602Z,99624.20
2019-05-20T08:48:03.162Z,99624.84
2019-05-20T08:53:26.126Z,99617.88
2019-05-20T08:58:49.496Z,99615.19
2019-05-20T09:04:12.222Z,99608.45
2019-05-20T09:09:36.103Z,99609.56
2019-05-20T09:15:00.049Z,99617.80
2019-05-20T09:20:23.529Z,99613.57
2019-05-20T09:25:47.078Z,99611.61
2019-05-20T09:31:10.502Z,99610.44
2019-05-20T09:36:33.756Z,99609.23
2019-05-20T09:41:57.106Z,99606.57
2019-05-20T09:47:20.398Z,99595.97
2019-05-20T09:52:44.079Z,99592.61
2019-05-20T09:58:07.757Z,99585.51
2019-05-20T10:03:31.256Z,99585.81
2019-05-20T10:08:55.104Z,99592.06
2019-05-20T10:14:18.168Z,99578.56
2019-05-20T10:19:41.895Z,99574.84
2019-05-20T10:25:08.249Z,99575.19
2019-05-20T10:30:31.894Z,99568.68
2019-05-20T10:35:55.807Z,99571.56
2019-05-20T10:41:20.099Z,99570.78
2019-05-20T10:46:43.415Z,99580.02
2019-05-20T10:52:06.663Z,99567.73
2019-05-20T10:57:29.934Z,99565.42
2019-05-20T11:02:55.430Z,99569.42
2019-05-20T11:08:18.689Z,99569.32
2019-05-20T11:13:41.961Z,99573.94
2019-05-20T11:19:05.547Z,99573.13
2019-05-20T11:24:30.325Z,99578.20
2019-05-20T11:29:53.928Z,99572.17
2019-05-20T11:35:17.672Z,99562.69
2019-05-20T11:40:41.226Z,99560.42
2019-05-20T11:46:04.619Z,99563.24
2019-05-20T11:51:27.995Z,99563.12
2019-05-20T11:56:51.661Z,99565.31
2019-05-20T12:02:14.261Z,99560.69
2019-05-20T12:07:37.682Z,99553.34
2019-05-20T12:13:00.926Z,99551.98
2019-05-20T12:18:24.241Z,99558.52
2019-05-20T12:23:47.840Z,99544.22
2019-05-20T12:29:10.934Z,99535.67
2019-05-20T12:34:34.529Z,99521.00
2019-05-20T12:40:07.158Z,99519.70
2019-05-20T12:45:21.860Z,99505.70
2019-05-20T12:50:44.938Z,99498.98
2019-05-20T12:56:08.358Z,99499.70
2019-05-20T13:01:31.882Z,99489.17
2019-05-20T13:06:55.536Z,99479.17
2019-05-20T13:12:18.830Z,99468.44
2019-05-20T13:17:44.691Z,99467.13
2019-05-20T13:23:09.937Z,99459.20
2019-05-20T13:28:32.203Z,99441.88
2019-05-20T13:33:56.073Z,99444.19
2019-05-20T13:39:19.346Z,99453.45
2019-05-20T13:44:42.915Z,99467.02
2019-05-20T13:50:10.846Z,99452.64
2019-05-20T13:55:33.892Z,99441.81
2019-05-20T14:00:57.372Z,99432.53
2019-05-20T14:06:20.695Z,99443.02
2019-05-20T14:11:43.995Z,99427.78
2019-05-20T14:17:07.197Z,99421.66
2019-05-20T14:22:30.750Z,99423.89
2019-05-20T14:27:54.438Z,99451.97
2019-05-20T14:33:18.148Z,99441.16
2019-05-20T14:38:41.542Z,99455.39
2019-05-20T14:44:04.868Z,99452.73
2019-05-20T14:49:28.074Z,99440.47
2019-05-20T14:54:51.152Z,99441.01
2019-05-20T15:00:16.068Z,99438.45
2019-05-20T15:05:39.984Z,99434.39
2019-05-20T15:11:03.930Z,99434.59
2019-05-20T15:16:26.977Z,99421.13
2019-05-20T15:21:50.607Z,99450.98
2019-05-20T15:27:15.480Z,99458.92
2019-05-20T15:32:39.039Z,99509.36
2019-05-20T15:38:02.866Z,99556.27
2019-05-20T15:43:26.033Z,99563.16
2019-05-20T15:48:49.529Z,99445.27
2019-05-20T15:54:12.974Z,99468.25
2019-05-20T15:59:46.083Z,99471.95
2019-05-20T16:05:06.287Z,99475.63
2019-05-20T16:10:29.943Z,99463.09
2019-05-20T16:15:52.928Z,99451.95
2019-05-20T16:21:16.289Z,99440.62
2019-05-20T16:26:39.799Z,99438.58
2019-05-20T16:32:19.875Z,99418.27
2019-05-20T16:37:43.429Z,99399.37
2019-05-20T16:43:07.132Z,99396.44
2019-05-20T16:48:30.715Z,99400.91
2019-05-20T16:53:54.064Z,99418.51
2019-05-20T16:59:17.806Z,99422.66
2019-05-20T17:04:40.897Z,99422.67
2019-05-20T17:10:06.793Z,99418.38
2019-05-20T17:15:30.134Z,99419.19
2019-05-20T17:20:54.094Z,99433.50
2019-05-20T17:26:17.373Z,99435.70
2019-05-20T17:31:41.042Z,99434.07
2019-05-20T17:37:05.692Z,99413.03
2019-05-20T17:42:29.299Z,99418.75
2019-05-20T17:47:52.338Z,99423.95
2019-05-20T17:53:15.876Z,99418.45
2019-05-20T17:58:39.415Z,99421.06
2019-05-20T18:04:03.614Z,99406.06
2019-05-20T18:09:28.469Z,99408.09
2019-05-20T18:14:55.271Z,99428.17
2019-05-20T18:20:18.300Z,99432.34
2019-05-20T18:25:41.580Z,99449.28
2019-05-20T18:31:05.298Z,99455.25
2019-05-20T18:36:27.991Z,99445.10
2019-05-20T18:41:51.480Z,99436.87
2019-05-20T18:47:14.826Z,99446.98
2019-05-20T18:52:37.835Z,99440.20
2019-05-20T18:58:01.722Z,99451.66
2019-05-20T19:03:25.242Z,99451.30
2019-05-20T19:09:16.763Z,99460.53
2019-05-20T19:14:39.396Z,99453.69
2019-05-20T19:20:02.741Z,99462.69
2019-05-20T19:25:37.515Z,99471.58
2019-05-20T19:30:50.651Z,99462.81
2019-05-20T19:36:14.390Z,99478.87
2019-05-20T19:41:38.179Z,99489.11
2019-05-20T19:47:01.785Z,99486.73
2019-05-20T19:52:24.997Z,99489.77
2019-05-20T19:57:48.446Z,99509.19
2019-05-20T20:03:11.907Z,99515.70
2019-05-20T20:08:34.742Z,99526.28
2019-05-20T20:13:58.239Z,99518.34
2019-05-20T20:19:21.962Z,99521.42
2019-05-20T20:24:45.872Z,99536.70
2019-05-20T20:30:10.422Z,99534.73
2019-05-20T20:35:38.194Z,99543.30
2019-05-20T20:40:59.239Z,99535.87
2019-05-20T20:46:22.489Z,99545.00
2019-05-20T20:51:45.715Z,99546.61
2019-05-20T20:57:09.243Z,99553.32
2019-05-20T21:02:32.825Z,99563.58
2019-05-20T21:07:56.282Z,99563.84
2019-05-20T21:13:19.661Z,99578.23
2019-05-20T21:18:42.987Z,99566.88
2019-05-20T21:24:06.391Z,99568.28
2019-05-20T21:29:32.531Z,99574.67
2019-05-20T21:34:54.454Z,99583.27
2019-05-20T21:40:17.327Z,99584.08
2019-05-20T21:45:40.852Z,99589.63
2019-05-20T21:51:04.470Z,99589.08
2019-05-20T21:56:27.964Z,99581.88
2019-05-20T22:01:51.512Z,99583.52
2019-05-20T22:07:14.831Z,99587.14
2019-05-20T22:12:38.087Z,99584.09
2019-05-20T22:18:01.889Z,99581.86
2019-05-20T22:23:29.285Z,99577.17
2019-05-20T22:28:52.579Z,99573.02
2019-05-20T22:34:17.177Z,99571.08
2019-05-20T22:39:40.532Z,99574.67
2019-05-20T22:45:03.641Z,99584.89
2019-05-20T22:50:26.948Z,99588.96
2019-05-20T22:55:50.610Z,99586.75
2019-05-20T23:01:14.340Z,99582.39
2019-05-20T23:06:37.144Z,99584.54
2019-05-20T23:12:00.383Z,99590.89
2019-05-20T23:17:24.182Z,99597.22
2019-05-20T23:22:47.208Z,99602.22
2019-05-20T23:28:10.802Z,99599.20
2019-05-20T23:33:34.111Z,99595.86
2019-05-20T23:38:57.333Z,99592.52
2019-05-20T23:44:20.468Z,99601.06
2019-05-20T23:49:43.231Z,99607.13
2019-05-20T23:55:08.333Z,99605.42
